Time;durP1;ratioP1;P1;durP2;ratioP2;P2;SDS_P1;SDS_P2;PMS_P1;PMS_P2;Temp;Humidity;BMP_temperature;BMP_pressure;BME280_temperature;BME280_humidity;BME280_pressure;Samples;Min_cycle;Max_cycle;Signal;HPM_P1;HPM_P2
2022/10/31 00:01:45;;;;;;;11.43;5.63;;;13.70;99.90;;;;;;5111981;28;20200;-81
2022/10/31 00:04:12;;;;;;;10.23;6.13;;;13.50;99.90;;;;;;5122005;27;20232;-81
2022/10/31 00:06:39;;;;;;;12.43;5.73;;;13.60;99.90;;;;;;5113831;27;20209;-82
2022/10/31 00:09:07;;;;;;;16.73;6.10;;;13.60;99.90;;;;;;5114394;28;20231;-81
2022/10/31 00:11:34;;;;;;;13.20;5.90;;;13.60;99.90;;;;;;5116091;27;20201;-81
2022/10/31 00:14:01;;;;;;;14.43;5.77;;;13.40;99.90;;;;;;5118173;27;20570;-81
2022/10/31 00:16:29;;;;;;;14.50;5.20;;;13.40;99.90;;;;;;5118772;28;20216;-81
2022/10/31 00:18:58;;;;;;;15.03;5.93;;;13.50;99.90;;;;;;5119333;27;20196;-82
2022/10/31 00:21:25;;;;;;;12.63;6.00;;;13.40;99.90;;;;;;5114652;27;20193;-81
2022/10/31 00:23:53;;;;;;;12.07;5.37;;;13.60;99.90;;;;;;5119496;28;20667;-81
2022/10/31 00:26:21;;;;;;;12.97;6.00;;;13.50;99.90;;;;;;5119461;28;20577;-81
2022/10/31 00:28:48;;;;;;;12.47;6.00;;;13.50;99.90;;;;;;5118620;28;20212;-81
2022/10/31 00:31:15;;;;;;;10.30;5.77;;;13.50;99.90;;;;;;5116162;28;20200;-82
2022/10/31 00:33:42;;;;;;;13.60;6.63;;;13.40;99.90;;;;;;5117547;28;20572;-81
2022/10/31 00:36:13;;;;;;;13.00;6.40;;;13.50;99.90;;;;;;5121468;27;20590;-81
2022/10/31 00:38:40;;;;;;;10.33;6.07;;;13.50;99.90;;;;;;5116742;27;20197;-81
2022/10/31 00:41:07;;;;;;;11.57;6.20;;;13.40;99.90;;;;;;5121332;27;21105;-81
2022/10/31 00:43:35;;;;;;;12.60;5.67;;;13.40;99.90;;;;;;5117373;27;20197;-81
2022/10/31 00:46:02;;;;;;;14.57;6.67;;;13.30;99.90;;;;;;5120256;28;20197;-81
2022/10/31 00:48:29;;;;;;;10.93;6.00;;;13.20;99.90;;;;;;5116340;28;20203;-81
2022/10/31 00:50:56;;;;;;;9.83;5.53;;;13.20;99.90;;;;;;5121642;28;20239;-81
2022/10/31 00:53:23;;;;;;;13.27;5.87;;;13.20;99.90;;;;;;5111689;28;20223;-81
2022/10/31 00:55:49;;;;;;;11.30;5.47;;;13.40;99.90;;;;;;5122866;27;20196;-81
2022/10/31 00:58:16;;;;;;;14.97;6.03;;;13.30;99.90;;;;;;5116616;28;20200;-82
2022/10/31 01:00:44;;;;;;;11.87;5.63;;;13.20;99.90;;;;;;5118783;28;20216;-81
2022/10/31 01:03:11;;;;;;;15.20;6.53;;;13.10;99.90;;;;;;5111669;28;20189;-81
2022/10/31 01:05:38;;;;;;;11.83;6.40;;;13.00;99.90;;;;;;5123290;28;20680;-82
2022/10/31 01:08:05;;;;;;;13.10;6.07;;;13.00;99.90;;;;;;5117521;28;20207;-81
2022/10/31 01:10:32;;;;;;;13.23;6.20;;;13.00;99.90;;;;;;5126898;27;20230;-82
2022/10/31 01:12:58;;;;;;;11.87;6.13;;;13.00;99.90;;;;;;5113641;27;20226;-81
2022/10/31 01:15:25;;;;;;;12.93;6.10;;;13.00;99.90;;;;;;5126144;27;20205;-81
2022/10/31 01:17:53;;;;;;;14.87;6.83;;;13.10;99.90;;;;;;5117928;27;20200;-81
2022/10/31 01:20:20;;;;;;;11.73;6.17;;;13.10;99.90;;;;;;5138837;27;20235;-81
2022/10/31 01:22:47;;;;;;;14.63;8.07;;;13.10;99.90;;;;;;5117774;27;20200;-81
2022/10/31 01:25:14;;;;;;;12.90;6.43;;;13.10;99.90;;;;;;5140483;27;20551;-81
2022/10/31 01:27:41;;;;;;;15.47;6.97;;;12.90;99.90;;;;;;5119581;27;20209;-81
2022/10/31 01:30:08;;;;;;;17.17;6.90;;;13.00;99.90;;;;;;5123028;28;20223;-81
2022/10/31 01:32:35;;;;;;;14.50;6.07;;;13.00;99.90;;;;;;5118097;27;20235;-81
2022/10/31 01:35:04;;;;;;;14.37;7.27;;;13.00;99.90;;;;;;5125936;27;20202;-82
2022/10/31 01:37:31;;;;;;;13.87;6.60;;;13.10;99.90;;;;;;5118378;28;20224;-81
2022/10/31 01:39:58;;;;;;;15.07;7.07;;;13.20;99.90;;;;;;5123294;27;20408;-82
2022/10/31 01:42:25;;;;;;;13.73;6.57;;;13.40;99.90;;;;;;5123572;27;20201;-82
2022/10/31 01:44:55;;;;;;;13.33;7.20;;;13.60;99.90;;;;;;5129335;27;20201;-81
2022/10/31 01:47:40;;;;;;;13.27;6.73;;;13.70;99.90;;;;;;5110941;28;20201;-81
2022/10/31 01:50:16;;;;;;;10.43;6.53;;;13.70;99.90;;;;;;5118774;28;20700;-81
2022/10/31 01:52:46;;;;;;;14.33;6.83;;;13.90;99.90;;;;;;5122698;28;20211;-81
2022/10/31 01:55:17;;;;;;;14.63;7.73;;;14.00;99.90;;;;;;5123004;27;20208;-82
2022/10/31 01:57:47;;;;;;;15.37;6.90;;;14.00;99.90;;;;;;5122467;27;20210;-82
2022/10/31 02:00:15;;;;;;;14.87;7.23;;;14.00;99.90;;;;;;5133281;27;20351;-81
2022/10/31 02:02:43;;;;;;;17.33;8.27;;;14.00;99.90;;;;;;5128347;27;20568;-82
2022/10/31 02:05:16;;;;;;;17.00;7.27;;;13.90;99.90;;;;;;5129309;27;20204;-82
2022/10/31 02:07:49;;;;;;;12.73;6.40;;;13.90;99.90;;;;;;5115744;28;20699;-82
2022/10/31 02:10:17;;;;;;;14.97;7.63;;;13.90;99.90;;;;;;5113232;28;20756;-82
2022/10/31 02:12:45;;;;;;;18.33;8.53;;;13.90;99.90;;;;;;5128028;27;20223;-81
2022/10/31 02:15:12;;;;;;;13.67;7.27;;;13.80;99.90;;;;;;5114206;28;20316;-81
2022/10/31 02:17:38;;;;;;;15.53;7.43;;;13.80;99.90;;;;;;5120435;28;20288;-81
2022/10/31 02:20:16;;;;;;;15.87;8.33;;;13.60;99.90;;;;;;5121400;28;20233;-81
2022/10/31 02:23:12;;;;;;;14.33;7.80;;;13.60;99.90;;;;;;5122841;27;20215;-81
2022/10/31 02:26:03;;;;;;;13.73;7.27;;;13.50;99.90;;;;;;5125519;27;20211;-82
2022/10/31 02:28:48;;;;;;;15.20;7.77;;;13.30;99.90;;;;;;5121897;27;20205;-82
2022/10/31 02:31:28;;;;;;;18.23;8.10;;;13.20;99.90;;;;;;5117920;28;20205;-81
2022/10/31 02:33:59;;;;;;;14.93;8.63;;;13.30;99.90;;;;;;5121871;27;20734;-82
2022/10/31 02:36:32;;;;;;;17.67;7.47;;;13.20;99.90;;;;;;5116311;28;20213;-82
2022/10/31 02:39:09;;;;;;;12.97;8.03;;;13.10;99.90;;;;;;5116675;27;20197;-81
2022/10/31 02:41:45;;;;;;;15.07;8.00;;;13.10;99.90;;;;;;5112038;28;20267;-82
2022/10/31 02:44:21;;;;;;;15.77;7.60;;;13.10;99.90;;;;;;5118023;28;20192;-82
2022/10/31 02:46:52;;;;;;;17.00;7.80;;;12.90;99.90;;;;;;5121276;28;20679;-82
2022/10/31 02:49:25;;;;;;;24.70;9.13;;;12.90;99.90;;;;;;5122493;28;20323;-82
2022/10/31 02:51:52;;;;;;;19.03;9.93;;;12.80;99.90;;;;;;5118530;28;20276;-82
2022/10/31 02:54:22;;;;;;;18.33;9.40;;;12.90;99.90;;;;;;5125355;27;20213;-81
2022/10/31 02:56:51;;;;;;;20.13;10.70;;;12.90;99.90;;;;;;5115776;28;20580;-81
2022/10/31 02:59:19;;;;;;;14.77;8.90;;;13.00;99.90;;;;;;5119856;28;20227;-81
2022/10/31 03:02:13;;;;;;;19.03;9.97;;;12.80;99.90;;;;;;5111586;28;20193;-81
2022/10/31 03:05:11;;;;;;;20.50;9.50;;;12.80;99.90;;;;;;5130700;27;20239;-81
2022/10/31 03:07:46;;;;;;;19.33;9.10;;;12.60;99.90;;;;;;5121531;28;20205;-81
2022/10/31 03:10:21;;;;;;;20.27;10.13;;;12.50;99.90;;;;;;5112034;28;20239;-81
2022/10/31 03:12:55;;;;;;;17.23;8.67;;;12.40;99.90;;;;;;5136543;27;20218;-81
2022/10/31 03:15:26;;;;;;;17.97;8.83;;;12.50;99.90;;;;;;5116176;27;20220;-81
2022/10/31 03:18:01;;;;;;;18.87;8.43;;;12.40;99.90;;;;;;5119188;28;20200;-82
2022/10/31 03:20:33;;;;;;;16.23;8.73;;;12.40;99.90;;;;;;5122260;27;20212;-82
2022/10/31 03:23:01;;;;;;;20.80;10.50;;;12.40;99.90;;;;;;5133983;27;20570;-82
2022/10/31 03:25:30;;;;;;;21.60;10.13;;;12.40;99.90;;;;;;5128214;27;20189;-81
2022/10/31 03:27:58;;;;;;;20.17;10.27;;;12.40;99.90;;;;;;5119882;28;20201;-81
2022/10/31 03:30:25;;;;;;;18.33;10.33;;;12.30;99.90;;;;;;5106116;28;20233;-82
2022/10/31 03:32:56;;;;;;;16.93;8.63;;;12.30;99.90;;;;;;5131179;27;20210;-82
2022/10/31 03:35:26;;;;;;;21.07;10.13;;;12.40;99.90;;;;;;5111456;27;20226;-81
2022/10/31 03:37:55;;;;;;;19.10;9.93;;;12.20;99.90;;;;;;5115165;28;20665;-81
2022/10/31 03:40:24;;;;;;;22.37;10.83;;;12.20;99.90;;;;;;5111998;28;20221;-81
2022/10/31 03:42:55;;;;;;;22.20;10.30;;;12.20;99.90;;;;;;5108403;28;20203;-81
2022/10/31 03:45:26;;;;;;;21.03;11.00;;;12.20;99.90;;;;;;5104513;27;20194;-81
2022/10/31 03:47:56;;;;;;;22.03;10.77;;;12.20;99.90;;;;;;5119977;27;20224;-81
2022/10/31 03:50:26;;;;;;;21.97;11.60;;;12.20;99.90;;;;;;5119945;27;20308;-81
2022/10/31 03:52:57;;;;;;;19.70;11.80;;;12.20;99.90;;;;;;5130335;27;20206;-81
2022/10/31 03:55:30;;;;;;;21.23;11.57;;;12.20;99.90;;;;;;5130667;27;20285;-81
2022/10/31 03:58:00;;;;;;;27.20;11.90;;;12.30;99.90;;;;;;5112358;28;20663;-81
2022/10/31 04:00:28;;;;;;;26.20;12.00;;;12.30;99.90;;;;;;5118493;28;20259;-81
2022/10/31 04:03:01;;;;;;;24.47;12.43;;;12.10;99.90;;;;;;5121046;27;20192;-81
2022/10/31 04:05:29;;;;;;;21.50;10.90;;;12.10;99.90;;;;;;5117281;27;20208;-81
2022/10/31 04:07:58;;;;;;;23.80;12.73;;;12.10;99.90;;;;;;5118181;28;20215;-82
2022/10/31 04:10:27;;;;;;;26.10;12.40;;;12.10;99.90;;;;;;5113764;28;20221;-81
2022/10/31 04:13:02;;;;;;;24.23;13.40;;;12.20;99.90;;;;;;5121918;27;20200;-81
2022/10/31 04:15:31;;;;;;;25.17;13.00;;;12.10;99.90;;;;;;5124766;27;20609;-81
2022/10/31 04:18:00;;;;;;;23.03;12.80;;;12.10;99.90;;;;;;5115543;28;20269;-81
2022/10/31 04:20:31;;;;;;;21.93;12.53;;;12.20;99.90;;;;;;5117898;28;20221;-81
2022/10/31 04:22:58;;;;;;;25.00;12.53;;;12.20;99.90;;;;;;5128704;27;20203;-81
2022/10/31 04:25:24;;;;;;;22.33;12.37;;;12.30;99.90;;;;;;5133848;27;20189;-81
2022/10/31 04:27:51;;;;;;;31.73;15.30;;;12.20;99.90;;;;;;5114831;28;20208;-81
2022/10/31 04:30:18;;;;;;;27.00;14.13;;;12.30;99.90;;;;;;5118035;28;20220;-82
2022/10/31 04:32:45;;;;;;;26.80;13.60;;;12.40;99.90;;;;;;5119213;27;20675;-81
2022/10/31 04:35:13;;;;;;;25.77;13.20;;;12.50;99.90;;;;;;5119206;27;20321;-81
2022/10/31 04:37:40;;;;;;;24.33;13.17;;;12.40;99.90;;;;;;5110499;28;20215;-84
2022/10/31 04:40:08;;;;;;;25.83;13.57;;;12.30;99.90;;;;;;5123046;27;20286;-82
2022/10/31 04:42:34;;;;;;;26.20;15.50;;;12.30;99.90;;;;;;5107505;28;20226;-82
2022/10/31 04:45:01;;;;;;;27.70;16.27;;;12.30;99.90;;;;;;5120457;28;20204;-82
2022/10/31 04:47:28;;;;;;;27.03;14.87;;;12.30;99.90;;;;;;5128482;27;20214;-82
2022/10/31 04:49:55;;;;;;;23.87;14.27;;;12.20;99.90;;;;;;5120624;28;20231;-82
2022/10/31 04:52:23;;;;;;;27.47;14.60;;;12.20;99.90;;;;;;5119519;28;20683;-81
2022/10/31 04:54:50;;;;;;;28.30;14.90;;;12.20;99.90;;;;;;5128492;28;20213;-81
2022/10/31 04:57:16;;;;;;;27.27;14.10;;;12.20;99.90;;;;;;5118277;28;20204;-80
2022/10/31 04:59:44;;;;;;;25.73;14.23;;;12.20;99.90;;;;;;5115166;28;20244;-80
2022/10/31 05:02:11;;;;;;;27.03;15.10;;;12.10;99.90;;;;;;5118572;28;20205;-81
2022/10/31 05:04:38;;;;;;;26.37;14.17;;;12.20;99.90;;;;;;5117460;28;20193;-81
2022/10/31 05:07:04;;;;;;;26.90;14.80;;;12.10;99.90;;;;;;5112206;27;20625;-81
2022/10/31 05:09:35;;;;;;;24.47;13.77;;;12.10;99.90;;;;;;5118439;28;20238;-81
2022/10/31 05:12:02;;;;;;;30.63;15.43;;;12.00;99.90;;;;;;5114724;28;20197;-81
2022/10/31 05:14:29;;;;;;;25.90;14.07;;;12.00;99.90;;;;;;5113568;28;20231;-80
2022/10/31 05:16:56;;;;;;;26.57;13.33;;;11.90;99.90;;;;;;5119939;28;20203;-81
2022/10/31 05:19:22;;;;;;;28.03;13.43;;;11.90;99.90;;;;;;5125436;27;20219;-81
2022/10/31 05:21:49;;;;;;;24.27;14.30;;;11.90;99.90;;;;;;5109102;28;20716;-81
2022/10/31 05:24:16;;;;;;;29.50;14.90;;;11.90;99.90;;;;;;5116458;28;20732;-81
2022/10/31 05:26:44;;;;;;;25.60;15.30;;;11.90;99.90;;;;;;5114385;28;20205;-81
2022/10/31 05:29:11;;;;;;;27.67;14.90;;;11.70;99.90;;;;;;5119897;28;20231;-81
2022/10/31 05:31:38;;;;;;;29.00;14.80;;;11.60;99.90;;;;;;5112865;28;20212;-81
2022/10/31 05:34:05;;;;;;;26.40;13.60;;;11.60;99.90;;;;;;5119891;28;20203;-81
2022/10/31 05:36:32;;;;;;;27.73;13.50;;;11.40;99.90;;;;;;5118759;28;20197;-81
2022/10/31 05:38:59;;;;;;;28.00;13.20;;;11.40;99.90;;;;;;5117797;28;20205;-81
2022/10/31 05:41:26;;;;;;;24.33;13.40;;;11.20;99.90;;;;;;5115889;28;20193;-81
2022/10/31 05:43:54;;;;;;;22.43;13.53;;;11.30;99.90;;;;;;5119934;28;20205;-81
2022/10/31 05:46:22;;;;;;;21.73;13.07;;;11.20;99.90;;;;;;5115324;28;20216;-81
2022/10/31 05:48:48;;;;;;;25.37;12.87;;;11.00;99.90;;;;;;5117178;28;20744;-82
2022/10/31 05:51:15;;;;;;;23.03;13.73;;;11.00;99.90;;;;;;5119998;28;20206;-82
2022/10/31 05:53:42;;;;;;;24.27;13.17;;;11.00;99.90;;;;;;5120891;28;20293;-82
2022/10/31 05:56:09;;;;;;;24.73;14.00;;;11.00;99.90;;;;;;5127447;28;20221;-81
2022/10/31 05:58:36;;;;;;;27.03;14.40;;;11.00;99.90;;;;;;5121872;27;20289;-82
2022/10/31 06:01:05;;;;;;;26.03;13.60;;;11.00;99.90;;;;;;5120544;27;20223;-82
2022/10/31 06:03:32;;;;;;;22.47;12.10;;;11.00;99.90;;;;;;5117330;27;20696;-82
2022/10/31 06:05:58;;;;;;;30.80;15.07;;;10.90;99.90;;;;;;5121267;27;20623;-83
2022/10/31 06:08:25;;;;;;;25.90;13.50;;;10.30;99.90;;;;;;5119370;27;20304;-82
2022/10/31 06:10:53;;;;;;;27.67;14.20;;;10.30;99.90;;;;;;5134844;27;20250;-83
2022/10/31 06:13:20;;;;;;;22.23;12.67;;;10.40;99.90;;;;;;5118202;27;20208;-82
2022/10/31 06:15:47;;;;;;;23.37;12.37;;;10.50;99.90;;;;;;5126742;27;20216;-82
2022/10/31 06:18:16;;;;;;;21.77;12.33;;;10.50;99.90;;;;;;5115696;27;20202;-82
2022/10/31 06:20:42;;;;;;;23.37;13.57;;;10.60;99.90;;;;;;5124692;27;20253;-82
2022/10/31 06:23:09;;;;;;;25.47;13.70;;;10.50;99.90;;;;;;5128117;27;20206;-83
2022/10/31 06:25:36;;;;;;;23.47;13.33;;;10.60;99.90;;;;;;5116006;28;20196;-83
2022/10/31 06:28:03;;;;;;;26.03;12.87;;;10.50;99.90;;;;;;5122207;27;20231;-83
2022/10/31 06:30:30;;;;;;;31.17;13.00;;;10.50;99.90;;;;;;5122890;27;20232;-83
2022/10/31 06:33:03;;;;;;;23.33;13.30;;;10.50;99.90;;;;;;5118223;27;20265;-83
2022/10/31 06:35:31;;;;;;;22.97;12.10;;;10.50;99.90;;;;;;5115315;27;20221;-84
2022/10/31 06:37:58;;;;;;;23.20;12.27;;;10.40;99.90;;;;;;5116635;28;20207;-85
2022/10/31 06:40:25;;;;;;;22.70;13.97;;;10.60;99.90;;;;;;5122326;27;20227;-83
2022/10/31 06:42:59;;;;;;;21.30;13.00;;;10.40;99.90;;;;;;5123442;27;20212;-84
2022/10/31 06:45:26;;;;;;;22.37;14.07;;;10.40;99.90;;;;;;5116134;27;20211;-84
2022/10/31 06:47:53;;;;;;;21.53;13.33;;;10.30;99.90;;;;;;5125007;27;20618;-83
2022/10/31 06:50:20;;;;;;;23.13;13.97;;;10.40;99.90;;;;;;5117892;27;21041;-83
2022/10/31 06:52:52;;;;;;;23.13;12.93;;;10.60;99.90;;;;;;5126237;27;20193;-83
2022/10/31 06:55:22;;;;;;;24.93;15.47;;;10.80;99.90;;;;;;5115727;27;20727;-83
2022/10/31 06:57:52;;;;;;;22.73;13.37;;;10.50;99.90;;;;;;5122063;27;20212;-83
2022/10/31 07:00:19;;;;;;;21.43;12.83;;;10.40;99.90;;;;;;5116293;27;20235;-81
2022/10/31 07:02:54;;;;;;;21.63;12.87;;;10.40;99.90;;;;;;5125370;27;20203;-82
2022/10/31 07:05:21;;;;;;;25.13;13.20;;;10.50;99.90;;;;;;5114700;27;20224;-82
2022/10/31 07:07:48;;;;;;;27.53;13.30;;;10.70;99.90;;;;;;5118985;27;20209;-83
2022/10/31 07:10:16;;;;;;;25.97;16.10;;;10.80;99.90;;;;;;5112356;28;20221;-82
2022/10/31 07:12:43;;;;;;;27.30;14.80;;;10.90;99.90;;;;;;5116779;27;20320;-81
2022/10/31 07:15:14;;;;;;;23.70;13.30;;;11.00;99.90;;;;;;5118508;27;20652;-82
2022/10/31 07:17:40;;;;;;;22.50;12.63;;;11.00;99.90;;;;;;5121807;27;20207;-82
2022/10/31 07:20:11;;;;;;;21.53;11.93;;;11.10;99.90;;;;;;5115934;28;20321;-81
2022/10/31 07:22:39;;;;;;;22.73;12.83;;;11.10;99.90;;;;;;5116876;27;20208;-81
2022/10/31 07:25:07;;;;;;;23.47;12.20;;;11.10;99.90;;;;;;5116943;27;20195;-81
2022/10/31 07:27:38;;;;;;;19.67;10.83;;;11.20;99.90;;;;;;5119376;27;20216;-81
2022/10/31 07:30:07;;;;;;;22.03;12.43;;;11.30;99.90;;;;;;5121559;27;20588;-81
2022/10/31 07:32:40;;;;;;;23.50;12.40;;;11.30;99.90;;;;;;5120603;27;20594;-82
2022/10/31 07:35:08;;;;;;;23.10;12.20;;;10.80;99.90;;;;;;5115799;28;20221;-82
2022/10/31 07:37:35;;;;;;;20.10;12.10;;;10.80;99.90;;;;;;5121806;27;20675;-82
2022/10/31 07:40:02;;;;;;;23.00;12.87;;;10.90;99.90;;;;;;5115722;28;20223;-82
2022/10/31 07:42:28;;;;;;;21.57;12.77;;;11.00;99.90;;;;;;5114599;27;20649;-82
2022/10/31 07:44:57;;;;;;;20.70;12.30;;;11.00;99.90;;;;;;5116111;27;20208;-82
2022/10/31 07:47:24;;;;;;;20.43;12.27;;;11.10;99.90;;;;;;5113732;27;20288;-82
2022/10/31 07:49:50;;;;;;;20.97;11.43;;;11.30;99.90;;;;;;5110870;28;20223;-82
2022/10/31 07:52:17;;;;;;;26.07;12.83;;;11.30;99.90;;;;;;5110477;28;20626;-82
2022/10/31 07:54:45;;;;;;;23.40;11.77;;;11.30;99.90;;;;;;5108126;28;20266;-82
2022/10/31 07:57:12;;;;;;;22.67;12.67;;;11.30;99.90;;;;;;5114164;28;20209;-82
2022/10/31 07:59:39;;;;;;;21.67;12.30;;;11.40;99.90;;;;;;5117099;27;20226;-82
2022/10/31 08:02:09;;;;;;;21.83;11.93;;;11.50;99.90;;;;;;5112793;28;20637;-82
2022/10/31 08:04:36;;;;;;;25.13;13.17;;;11.60;99.90;;;;;;5111132;27;20293;-82
2022/10/31 08:07:03;;;;;;;25.73;13.10;;;11.70;99.90;;;;;;5114426;27;20269;-83
2022/10/31 08:09:30;;;;;;;21.57;12.63;;;11.90;99.90;;;;;;5116693;28;20221;-82
2022/10/31 08:11:57;;;;;;;23.37;12.97;;;11.90;99.90;;;;;;5112378;28;20206;-82
2022/10/31 08:14:24;;;;;;;23.90;13.07;;;12.10;99.90;;;;;;5111847;28;20202;-83
2022/10/31 08:16:51;;;;;;;22.77;12.93;;;12.10;99.90;;;;;;5114764;27;20228;-83
2022/10/31 08:19:19;;;;;;;20.13;12.43;;;12.10;99.90;;;;;;5116754;28;20235;-82
2022/10/31 08:21:46;;;;;;;23.67;13.97;;;12.20;99.90;;;;;;5111809;28;20680;-82
2022/10/31 08:24:13;;;;;;;22.63;12.60;;;12.20;99.90;;;;;;5117642;27;20710;-82
2022/10/31 08:26:39;;;;;;;18.73;11.27;;;12.20;99.90;;;;;;5112720;27;20272;-82
2022/10/31 08:29:06;;;;;;;23.20;12.90;;;12.20;99.90;;;;;;5113089;28;20225;-83
2022/10/31 08:31:33;;;;;;;23.97;13.80;;;12.30;99.90;;;;;;5119511;28;20196;-83
2022/10/31 08:34:00;;;;;;;27.97;16.07;;;12.30;99.90;;;;;;5118354;27;20216;-83
2022/10/31 08:36:29;;;;;;;25.23;14.13;;;12.40;99.90;;;;;;5111177;28;20236;-83
2022/10/31 08:38:56;;;;;;;23.67;13.70;;;12.40;99.90;;;;;;5112297;28;20233;-84
2022/10/31 08:41:23;;;;;;;24.60;13.20;;;12.50;99.90;;;;;;5116283;28;20193;-84
2022/10/31 08:43:50;;;;;;;23.70;14.13;;;12.60;99.90;;;;;;5113437;28;20208;-82
2022/10/31 08:46:17;;;;;;;22.87;13.27;;;12.80;99.90;;;;;;5113126;28;20240;-82
2022/10/31 08:48:44;;;;;;;23.07;13.77;;;13.10;99.90;;;;;;5116412;28;20646;-83
2022/10/31 08:51:11;;;;;;;28.20;14.30;;;13.20;99.90;;;;;;5113723;28;20209;-83
2022/10/31 08:53:40;;;;;;;22.40;13.40;;;13.30;99.90;;;;;;5112783;28;20554;-83
2022/10/31 08:56:07;;;;;;;23.67;14.17;;;13.30;99.90;;;;;;5118942;28;20301;-83
2022/10/31 08:58:34;;;;;;;26.50;14.57;;;13.30;99.90;;;;;;5116555;28;20201;-83
2022/10/31 09:01:02;;;;;;;26.90;13.73;;;13.50;99.90;;;;;;5120507;28;20228;-81
2022/10/31 09:03:31;;;;;;;25.50;15.73;;;13.50;99.90;;;;;;5107423;28;20254;-83
2022/10/31 09:06:00;;;;;;;23.97;15.57;;;13.50;99.90;;;;;;5119198;28;20209;-82
2022/10/31 09:08:30;;;;;;;24.70;16.67;;;13.70;99.90;;;;;;5115266;28;20439;-82
2022/10/31 09:10:58;;;;;;;24.20;14.97;;;13.90;99.90;;;;;;5117871;28;20311;-82
2022/10/31 09:13:25;;;;;;;23.03;13.97;;;13.90;99.90;;;;;;5114538;28;20265;-82
2022/10/31 09:15:54;;;;;;;23.43;13.77;;;14.00;99.90;;;;;;5114414;28;20223;-81
2022/10/31 09:18:23;;;;;;;23.67;14.00;;;14.00;99.90;;;;;;5114309;28;20204;-81
2022/10/31 09:20:51;;;;;;;24.67;14.30;;;14.20;99.90;;;;;;5111708;28;20225;-83
2022/10/31 09:23:20;;;;;;;23.70;12.93;;;14.40;99.90;;;;;;5118013;28;20226;-84
2022/10/31 09:25:48;;;;;;;26.20;14.97;;;14.50;99.90;;;;;;5117738;28;20203;-83
2022/10/31 09:28:17;;;;;;;25.65;14.63;;;14.70;99.90;;;;;;5118348;27;20302;-83
2022/10/31 09:30:47;;;;;;;29.90;18.33;;;14.90;99.90;;;;;;5109812;28;20248;-82
2022/10/31 09:33:15;;;;;;;24.90;15.55;;;15.00;99.90;;;;;;5120390;27;20661;-83
2022/10/31 09:35:42;;;;;;;26.20;15.38;;;15.10;99.90;;;;;;5121939;28;20217;-83
2022/10/31 09:38:11;;;;;;;29.55;18.23;;;15.30;99.90;;;;;;5117385;27;20209;-83
2022/10/31 09:40:40;;;;;;;24.40;16.23;;;15.60;99.90;;;;;;5122317;27;20588;-83
2022/10/31 09:43:22;;;;;;;29.57;15.90;;;15.70;99.90;;;;;;5119010;28;20773;-83
2022/10/31 09:46:01;;;;;;;24.75;15.80;;;15.80;99.90;;;;;;5118956;27;20197;-83
2022/10/31 09:48:50;;;;;;;29.95;17.10;;;15.90;99.90;;;;;;5117924;27;20212;-83
2022/10/31 09:51:20;;;;;;;24.73;15.52;;;15.90;99.90;;;;;;5118178;28;20300;-82
2022/10/31 09:53:52;;;;;;;30.75;16.05;;;15.90;99.90;;;;;;5118486;27;20203;-83
2022/10/31 09:56:21;;;;;;;31.90;16.48;;;15.90;99.90;;;;;;5116695;27;20303;-83
2022/10/31 09:58:53;;;;;;;27.45;15.85;;;16.10;99.90;;;;;;5125280;27;20268;-83
2022/10/31 10:01:42;;;;;;;25.55;15.10;;;16.20;99.90;;;;;;5116770;28;20217;-85
2022/10/31 10:04:31;;;;;;;23.00;14.15;;;16.40;99.90;;;;;;5122995;27;20265;-83
2022/10/31 10:06:59;;;;;;;25.33;13.88;;;16.60;99.90;;;;;;5122480;27;20201;-82
2022/10/31 10:09:27;;;;;;;25.15;12.93;;;16.80;99.90;;;;;;5123815;27;20251;-83
2022/10/31 10:12:07;;;;;;;25.60;13.63;;;16.60;99.90;;;;;;5112827;28;20193;-83
2022/10/31 10:14:52;;;;;;;27.02;13.15;;;16.50;99.90;;;;;;5123415;27;20216;-82
2022/10/31 10:17:33;;;;;;;23.98;13.23;;;16.70;99.90;;;;;;5110550;27;20224;-83
2022/10/31 10:20:23;;;;;;;24.55;13.07;;;16.90;99.90;;;;;;5114963;28;20251;-83
2022/10/31 10:22:56;;;;;;;24.27;12.93;;;17.10;99.90;;;;;;5119711;27;20240;-83
2022/10/31 10:25:25;;;;;;;22.85;11.95;;;17.10;99.90;;;;;;5114970;28;20194;-82
2022/10/31 10:28:05;;;;;;;21.42;13.02;;;17.30;99.90;;;;;;5112435;28;20214;-81
2022/10/31 10:30:40;;;;;;;21.75;12.43;;;17.30;99.90;;;;;;5113252;27;20737;-82
2022/10/31 10:33:12;;;;;;;24.63;12.63;;;17.20;99.90;;;;;;5119202;27;20212;-84
2022/10/31 10:35:44;;;;;;;23.30;12.60;;;17.20;99.90;;;;;;5115412;27;20227;-84
2022/10/31 10:38:20;;;;;;;23.30;12.57;;;17.30;99.90;;;;;;5120383;27;20205;-84
2022/10/31 10:40:48;;;;;;;22.05;11.75;;;17.60;99.90;;;;;;5118194;27;20228;-86
2022/10/31 10:43:34;;;;;;;20.48;12.27;;;17.50;99.90;;;;;;5115737;27;20235;-85
2022/10/31 10:49:11;;;;;;;22.27;11.50;;;17.60;99.90;;;;;;5116181;28;20222;-83
2022/10/31 10:51:43;;;;;;;23.45;10.75;;;17.60;99.90;;;;;;5116569;28;20656;-84
2022/10/31 10:54:40;;;;;;;19.95;10.55;;;18.00;99.90;;;;;;5118258;28;20228;-84
2022/10/31 10:57:18;;;;;;;21.15;10.50;;;18.10;99.90;;;;;;5113566;28;20217;-87
2022/10/31 10:59:46;;;;;;;21.55;11.90;;;18.40;99.90;;;;;;5122069;28;20739;-85
2022/10/31 11:02:18;;;;;;;20.13;11.50;;;18.10;99.90;;;;;;5119874;28;20212;-84
2022/10/31 11:04:48;;;;;;;20.60;11.27;;;17.70;99.90;;;;;;5123518;28;20260;-83
2022/10/31 11:07:15;;;;;;;16.85;10.63;;;17.90;99.90;;;;;;5116840;28;20285;-84
2022/10/31 11:09:41;;;;;;;18.98;10.73;;;17.80;99.90;;;;;;5114567;27;20229;-84
2022/10/31 11:12:11;;;;;;;18.45;9.88;;;17.90;99.90;;;;;;5117956;28;20204;-83
2022/10/31 11:14:46;;;;;;;21.52;10.50;;;17.80;99.90;;;;;;5115015;28;20186;-83
2022/10/31 11:17:23;;;;;;;22.55;9.20;;;17.90;99.90;;;;;;5110219;28;20223;-82
2022/10/31 11:20:01;;;;;;;15.65;8.75;;;17.80;99.90;;;;;;5108310;28;20226;-84
2022/10/31 11:22:28;;;;;;;16.77;8.82;;;18.10;99.90;;;;;;5104832;28;20598;-85
2022/10/31 11:24:55;;;;;;;22.23;9.10;;;18.20;99.90;;;;;;5112563;28;20288;-85
2022/10/31 11:27:24;;;;;;;18.17;9.20;;;18.10;99.90;;;;;;5111403;27;20211;-82
2022/10/31 11:29:51;;;;;;;19.02;9.02;;;18.30;99.90;;;;;;5113517;28;20263;-84
2022/10/31 11:32:22;;;;;;;21.33;9.57;;;18.50;99.90;;;;;;5116563;28;20203;-84
2022/10/31 11:34:52;;;;;;;21.23;10.93;;;18.70;95.30;;;;;;5121852;27;20205;-84
2022/10/31 11:37:22;;;;;;;19.52;9.40;;;18.40;99.90;;;;;;5115606;28;20217;-85
2022/10/31 11:39:53;;;;;;;18.02;7.80;;;18.50;99.90;;;;;;5114079;28;20221;-87
2022/10/31 11:42:23;;;;;;;15.55;7.88;;;18.60;62.10;;;;;;5117838;28;20450;-85
2022/10/31 11:44:52;;;;;;;17.58;7.78;;;18.90;1.00;;;;;;5117069;27;20204;-85
2022/10/31 11:47:27;;;;;;;14.45;7.75;;;19.20;1.00;;;;;;5121410;27;20307;-85
2022/10/31 11:49:55;;;;;;;16.45;7.30;;;19.10;11.30;;;;;;5117806;28;20659;-83
2022/10/31 11:52:24;;;;;;;12.90;7.50;;;19.30;1.00;;;;;;5121202;28;20572;-83
2022/10/31 11:54:55;;;;;;;15.90;7.55;;;19.60;99.90;;;;;;5117071;27;20278;-83
2022/10/31 11:57:28;;;;;;;17.45;8.52;;;19.30;99.90;;;;;;5112453;27;20223;-83
2022/10/31 11:59:57;;;;;;;15.68;7.68;;;18.80;1.00;;;;;;5105459;28;20224;-84
2022/10/31 12:02:25;;;;;;;13.20;7.63;;;18.70;1.00;;;;;;5108936;28;20623;-86
2022/10/31 12:04:59;;;;;;;12.80;7.65;;;19.30;99.90;;;;;;5121117;27;20268;-85
2022/10/31 12:07:25;;;;;;;16.50;8.35;;;19.70;96.70;;;;;;5127298;27;20201;-85
2022/10/31 12:09:52;;;;;;;17.60;8.35;;;19.60;1.00;;;;;;5119190;28;20221;-85
2022/10/31 12:12:54;;;;;;;17.08;8.25;;;19.70;98.90;;;;;;5124832;28;20213;-85
2022/10/31 12:15:31;;;;;;;22.60;10.32;;;19.50;99.90;;;;;;5118206;28;20212;-85
2022/10/31 12:18:33;;;;;;;18.63;9.80;;;19.00;99.90;;;;;;5114538;27;20220;-83
2022/10/31 12:21:13;;;;;;;19.65;10.95;;;18.70;99.90;;;;;;5113817;28;20692;-84
2022/10/31 12:23:54;;;;;;;19.33;11.25;;;18.30;99.90;;;;;;5118907;28;20212;-85
2022/10/31 12:26:31;;;;;;;20.30;11.65;;;18.10;99.90;;;;;;5115564;28;20209;-85
2022/10/31 12:29:20;;;;;;;21.55;11.48;;;18.10;99.90;;;;;;5111271;27;20201;-87
2022/10/31 12:32:00;;;;;;;21.25;10.70;;;18.20;99.90;;;;;;5113758;27;20201;-86
2022/10/31 12:34:53;;;;;;;21.05;11.27;;;18.60;99.90;;;;;;5115865;27;20207;-83
2022/10/31 12:37:33;;;;;;;21.98;10.38;;;19.20;99.90;;;;;;5096568;27;20225;-83
2022/10/31 12:40:16;;;;;;;21.20;10.07;;;19.20;99.90;;;;;;5115401;27;20220;-82
2022/10/31 12:42:57;;;;;;;19.05;10.70;;;19.10;99.90;;;;;;5111257;27;20205;-85
2022/10/31 12:45:40;;;;;;;17.05;10.32;;;19.50;99.90;;;;;;5116360;28;20201;-87
2022/10/31 12:48:27;;;;;;;20.55;9.73;;;19.20;97.40;;;;;;5115302;27;20246;-87
2022/10/31 12:51:04;;;;;;;23.15;10.40;;;18.70;99.90;;;;;;5113203;28;20267;-84